sensor_id;sensor_type;location;lat;lon;timestamp;pressure;altitude;pressure_sealevel;temperature;humidity
71716;BME280;59568;52.128;5.434;2023-01-24T00:00:42;104090.34;;;2.17;89.80
71716;BME280;59568;52.128;5.434;2023-01-24T00:03:09;104097.09;;;2.18;89.99
71716;BME280;59568;52.128;5.434;2023-01-24T00:05:40;104095.31;;;2.19;89.89
71716;BME280;59568;52.128;5.434;2023-01-24T00:08:07;104087.75;;;2.17;89.76
71716;BME280;59568;52.128;5.434;2023-01-24T00:10:35;104091.94;;;2.18;89.89
71716;BME280;59568;52.128;5.434;2023-01-24T00:13:02;104085.97;;;2.18;89.53
71716;BME280;59568;52.128;5.434;2023-01-24T00:15:30;104092.75;;;2.19;89.54
71716;BME280;59568;52.128;5.434;2023-01-24T00:17:57;104078.25;;;2.18;89.67
71716;BME280;59568;52.128;5.434;2023-01-24T00:20:25;104082.44;;;2.19;89.64
71716;BME280;59568;52.128;5.434;2023-01-24T00:22:52;104072.41;;;2.16;89.58
71716;BME280;59568;52.128;5.434;2023-01-24T00:25:18;104072.41;;;2.16;89.60
71716;BME280;59568;52.128;5.434;2023-01-24T00:27:46;104081.75;;;2.17;89.60
71716;BME280;59568;52.128;5.434;2023-01-24T00:30:13;104077.56;;;2.16;89.38
71716;BME280;59568;52.128;5.434;2023-01-24T00:32:40;104080.16;;;2.16;89.41
71716;BME280;59568;52.128;5.434;2023-01-24T00:35:07;104089.50;;;2.17;89.48
71716;BME280;59568;52.128;5.434;2023-01-24T00:37:34;104075.94;;;2.15;89.77
71716;BME280;59568;52.128;5.434;2023-01-24T00:40:01;104075.94;;;2.15;89.40
71716;BME280;59568;52.128;5.434;2023-01-24T00:42:28;104083.69;;;2.15;89.45
71716;BME280;59568;52.128;5.434;2023-01-24T00:44:55;104082.06;;;2.14;89.57
71716;BME280;59568;52.128;5.434;2023-01-24T00:47:22;104082.88;;;2.14;89.56
71716;BME280;59568;52.128;5.434;2023-01-24T00:49:50;104072.56;;;2.14;89.57
71716;BME280;59568;52.128;5.434;2023-01-24T00:52:17;104076.91;;;2.14;89.48
71716;BME280;59568;52.128;5.434;2023-01-24T00:54:44;104070.13;;;2.13;89.99
71716;BME280;59568;52.128;5.434;2023-01-24T00:57:11;104071.75;;;2.14;89.92
71716;BME280;59568;52.128;5.434;2023-01-24T00:59:38;104069.31;;;2.12;89.77
71716;BME280;59568;52.128;5.434;2023-01-24T01:02:05;104070.94;;;2.13;89.96
71716;BME280;59568;52.128;5.434;2023-01-24T01:04:34;104061.44;;;2.14;90.02
71716;BME280;59568;52.128;5.434;2023-01-24T01:07:01;104064.97;;;2.13;89.62
71716;BME280;59568;52.128;5.434;2023-01-24T01:09:28;104062.38;;;2.13;89.95
71716;BME280;59568;52.128;5.434;2023-01-24T01:11:54;104070.13;;;2.13;90.14
71716;BME280;59568;52.128;5.434;2023-01-24T01:14:21;104070.13;;;2.13;90.25
71716;BME280;59568;52.128;5.434;2023-01-24T01:16:48;104068.50;;;2.12;90.20
71716;BME280;59568;52.128;5.434;2023-01-24T01:19:15;104065.28;;;2.10;90.17
71716;BME280;59568;52.128;5.434;2023-01-24T01:21:42;104064.44;;;2.09;89.85
71716;BME280;59568;52.128;5.434;2023-01-24T01:24:11;104053.31;;;2.09;89.83
71716;BME280;59568;52.128;5.434;2023-01-24T01:26:38;104062.69;;;2.10;89.64
71716;BME280;59568;52.128;5.434;2023-01-24T01:29:05;104058.34;;;2.10;89.77
71716;BME280;59568;52.128;5.434;2023-01-24T01:31:32;104057.81;;;2.07;89.47
71716;BME280;59568;52.128;5.434;2023-01-24T01:33:59;104067.34;;;2.06;89.73
71716;BME280;59568;52.128;5.434;2023-01-24T01:36:25;104060.53;;;2.05;89.79
71716;BME280;59568;52.128;5.434;2023-01-24T01:38:52;104059.59;;;2.06;89.64
71716;BME280;59568;52.128;5.434;2023-01-24T01:41:20;104059.72;;;2.05;89.45
71716;BME280;59568;52.128;5.434;2023-01-24T01:43:47;104052.78;;;2.05;89.40
71716;BME280;59568;52.128;5.434;2023-01-24T01:46:51;104050.38;;;2.04;89.31
71716;BME280;59568;52.128;5.434;2023-01-24T01:49:23;104050.38;;;2.04;89.56
71716;BME280;59568;52.128;5.434;2023-01-24T01:51:55;104048.63;;;2.04;89.38
71716;BME280;59568;52.128;5.434;2023-01-24T01:54:30;104050.38;;;2.04;89.60
71716;BME280;59568;52.128;5.434;2023-01-24T01:57:04;104048.75;;;2.03;89.62
71716;BME280;59568;52.128;5.434;2023-01-24T01:59:37;104049.56;;;2.03;89.37
71716;BME280;59568;52.128;5.434;2023-01-24T02:02:07;104046.97;;;2.03;89.65
71716;BME280;59568;52.128;5.434;2023-01-24T02:04:38;104050.53;;;2.02;89.61
71716;BME280;59568;52.128;5.434;2023-01-24T02:07:24;104048.75;;;2.03;89.62
71716;BME280;59568;52.128;5.434;2023-01-24T02:09:55;104051.47;;;2.01;89.44
71716;BME280;59568;52.128;5.434;2023-01-24T02:12:32;104045.38;;;2.02;89.43
71716;BME280;59568;52.128;5.434;2023-01-24T02:15:06;104048.75;;;2.03;89.73
71716;BME280;59568;52.128;5.434;2023-01-24T02:17:52;104049.88;;;2.00;89.70
71716;BME280;59568;52.128;5.434;2023-01-24T02:20:34;104047.16;;;2.02;89.74
71716;BME280;59568;52.128;5.434;2023-01-24T02:28:29;104048.91;;;2.01;89.42
71716;BME280;59568;52.128;5.434;2023-01-24T02:30:57;104045.50;;;2.00;89.63
71716;BME280;59568;52.128;5.434;2023-01-24T02:33:25;104047.16;;;2.02;89.20
71716;BME280;59568;52.128;5.434;2023-01-24T02:36:24;104049.06;;;1.99;89.35
71716;BME280;59568;52.128;5.434;2023-01-24T02:39:14;104043.06;;;1.99;89.75
71716;BME280;59568;52.128;5.434;2023-01-24T02:41:48;104049.88;;;2.00;89.71
71716;BME280;59568;52.128;5.434;2023-01-24T02:44:40;104050.97;;;1.97;89.55
71716;BME280;59568;52.128;5.434;2023-01-24T02:47:09;104054.22;;;1.99;89.40
71716;BME280;59568;52.128;5.434;2023-01-24T02:49:36;104047.56;;;1.97;89.43
71716;BME280;59568;52.128;5.434;2023-01-24T02:52:03;104044.19;;;1.96;89.39
71716;BME280;59568;52.128;5.434;2023-01-24T02:54:48;104048.69;;;1.94;89.60
71716;BME280;59568;52.128;5.434;2023-01-24T02:57:15;104045.16;;;1.95;89.51
71716;BME280;59568;52.128;5.434;2023-01-24T03:00:00;104047.75;;;1.95;89.65
71716;BME280;59568;52.128;5.434;2023-01-24T03:02:27;104040.28;;;1.92;89.55
71716;BME280;59568;52.128;5.434;2023-01-24T03:04:54;104040.94;;;1.94;89.89
71716;BME280;59568;52.128;5.434;2023-01-24T03:07:21;104038.50;;;1.93;89.83
71716;BME280;59568;52.128;5.434;2023-01-24T03:09:48;104040.16;;;1.94;90.00
71716;BME280;59568;52.128;5.434;2023-01-24T03:12:15;104036.91;;;1.92;90.21
71716;BME280;59568;52.128;5.434;2023-01-24T03:15:00;104040.28;;;1.92;90.10
71716;BME280;59568;52.128;5.434;2023-01-24T03:17:46;104031.22;;;1.88;90.28
71716;BME280;59568;52.128;5.434;2023-01-24T03:20:31;104025.28;;;1.88;90.25
71716;BME280;59568;52.128;5.434;2023-01-24T03:23:17;104033.16;;;1.86;90.49
71716;BME280;59568;52.128;5.434;2023-01-24T03:26:03;104035.59;;;1.88;90.54
71716;BME280;59568;52.128;5.434;2023-01-24T03:28:48;104034.78;;;1.87;89.98
71716;BME280;59568;52.128;5.434;2023-01-24T03:31:34;104033.94;;;1.87;90.42
71716;BME280;59568;52.128;5.434;2023-01-24T03:34:19;104027.97;;;1.86;90.34
71716;BME280;59568;52.128;5.434;2023-01-24T03:37:12;104036.69;;;1.85;90.30
71716;BME280;59568;52.128;5.434;2023-01-24T03:39:39;104026.66;;;1.82;90.61
71716;BME280;59568;52.128;5.434;2023-01-24T03:42:27;104031.97;;;1.80;90.05
71716;BME280;59568;52.128;5.434;2023-01-24T03:44:54;104038.88;;;1.80;90.17
71716;BME280;59568;52.128;5.434;2023-01-24T03:47:21;104047.56;;;1.79;90.15
71716;BME280;59568;52.128;5.434;2023-01-24T03:49:48;104036.59;;;1.77;90.23
71716;BME280;59568;52.128;5.434;2023-01-24T03:52:33;104041.09;;;1.75;90.08
71716;BME280;59568;52.128;5.434;2023-01-24T03:55:01;104046.25;;;1.75;89.94
71716;BME280;59568;52.128;5.434;2023-01-24T03:57:28;104046.56;;;1.72;89.94
71716;BME280;59568;52.128;5.434;2023-01-24T03:59:55;104043.16;;;1.71;90.30
71716;BME280;59568;52.128;5.434;2023-01-24T04:02:22;104049.28;;;1.70;90.32
71716;BME280;59568;52.128;5.434;2023-01-24T04:04:50;104047.66;;;1.69;90.02
71716;BME280;59568;52.128;5.434;2023-01-24T04:07:35;104042.66;;;1.68;90.24
71716;BME280;59568;52.128;5.434;2023-01-24T04:10:02;104050.25;;;1.69;90.15
71716;BME280;59568;52.128;5.434;2023-01-24T04:12:29;104048.47;;;1.70;90.30
71716;BME280;59568;52.128;5.434;2023-01-24T04:14:56;104050.25;;;1.69;90.21
71716;BME280;59568;52.128;5.434;2023-01-24T04:17:23;104041.66;;;1.69;90.27
71716;BME280;59568;52.128;5.434;2023-01-24T04:19:50;104046.81;;;1.69;90.10
71716;BME280;59568;52.128;5.434;2023-01-24T04:22:17;104042.66;;;1.68;90.54
71716;BME280;59568;52.128;5.434;2023-01-24T04:24:45;104048.59;;;1.68;90.14
71716;BME280;59568;52.128;5.434;2023-01-24T04:27:12;104047.00;;;1.67;90.37
71716;BME280;59568;52.128;5.434;2023-01-24T04:29:39;104048.75;;;1.67;90.54
71716;BME280;59568;52.128;5.434;2023-01-24T04:32:07;104050.38;;;1.68;90.88
71716;BME280;59568;52.128;5.434;2023-01-24T04:34:34;104052.97;;;1.68;90.93
71716;BME280;59568;52.128;5.434;2023-01-24T04:37:01;104056.34;;;1.68;90.71
71716;BME280;59568;52.128;5.434;2023-01-24T04:39:28;104051.31;;;1.67;90.81
71716;BME280;59568;52.128;5.434;2023-01-24T04:41:54;104058.25;;;1.66;90.73
71716;BME280;59568;52.128;5.434;2023-01-24T04:44:21;104058.38;;;1.65;90.61
71716;BME280;59568;52.128;5.434;2023-01-24T04:46:48;104056.13;;;1.62;90.75
71716;BME280;59568;52.128;5.434;2023-01-24T04:49:15;104061.41;;;1.60;90.59
71716;BME280;59568;52.128;5.434;2023-01-24T04:51:42;104059.94;;;1.57;90.37
71716;BME280;59568;52.128;5.434;2023-01-24T04:54:10;104055.88;;;1.55;90.37
71716;BME280;59568;52.128;5.434;2023-01-24T04:56:37;104058.44;;;1.55;90.33
71716;BME280;59568;52.128;5.434;2023-01-24T04:59:05;104069.59;;;1.55;90.54
71716;BME280;59568;52.128;5.434;2023-01-24T05:01:32;104064.44;;;1.55;90.51
71716;BME280;59568;52.128;5.434;2023-01-24T05:03:58;104067.00;;;1.55;90.38
71716;BME280;59568;52.128;5.434;2023-01-24T05:06:26;104072.16;;;1.55;90.91
71716;BME280;59568;52.128;5.434;2023-01-24T05:08:54;104067.94;;;1.54;90.92
71716;BME280;59568;52.128;5.434;2023-01-24T05:11:22;104066.19;;;1.55;91.22
71716;BME280;59568;52.128;5.434;2023-01-24T05:13:50;104071.34;;;1.55;91.20
71716;BME280;59568;52.128;5.434;2023-01-24T05:16:17;104071.34;;;1.55;90.96
71716;BME280;59568;52.128;5.434;2023-01-24T05:18:44;104068.94;;;1.53;91.06
71716;BME280;59568;52.128;5.434;2023-01-24T05:21:15;104068.94;;;1.53;91.32
71716;BME280;59568;52.128;5.434;2023-01-24T05:23:43;104073.09;;;1.54;90.96
71716;BME280;59568;52.128;5.434;2023-01-24T05:26:14;104068.09;;;1.53;91.33
71716;BME280;59568;52.128;5.434;2023-01-24T05:28:41;104076.00;;;1.51;91.04
71716;BME280;59568;52.128;5.434;2023-01-24T05:31:08;104073.53;;;1.50;91.18
71716;BME280;59568;52.128;5.434;2023-01-24T05:33:35;104080.47;;;1.49;91.20
71716;BME280;59568;52.128;5.434;2023-01-24T05:36:06;104079.81;;;1.47;90.72
71716;BME280;59568;52.128;5.434;2023-01-24T05:38:33;104074.94;;;1.44;91.19
71716;BME280;59568;52.128;5.434;2023-01-24T05:41:09;104080.88;;;1.45;91.08
71716;BME280;59568;52.128;5.434;2023-01-24T05:43:37;104080.09;;;1.44;91.17
71716;BME280;59568;52.128;5.434;2023-01-24T05:46:13;104086.22;;;1.43;91.12
71716;BME280;59568;52.128;5.434;2023-01-24T05:48:44;104081.31;;;1.40;91.11
71716;BME280;59568;52.128;5.434;2023-01-24T05:51:13;104085.81;;;1.38;90.92
71716;BME280;59568;52.128;5.434;2023-01-24T05:53:42;104083.53;;;1.35;91.05
71716;BME280;59568;52.128;5.434;2023-01-24T05:56:12;104077.72;;;1.33;90.94
71716;BME280;59568;52.128;5.434;2023-01-24T05:58:41;104075.13;;;1.33;91.15
71716;BME280;59568;52.128;5.434;2023-01-24T06:01:14;104080.97;;;1.35;91.32
71716;BME280;59568;52.128;5.434;2023-01-24T06:03:44;104078.38;;;1.35;91.22
71716;BME280;59568;52.128;5.434;2023-01-24T06:06:13;104087.72;;;1.36;91.38
71716;BME280;59568;52.128;5.434;2023-01-24T06:08:41;104086.78;;;1.37;91.73
71716;BME280;59568;52.128;5.434;2023-01-24T06:11:13;104092.88;;;1.36;91.73
71716;BME280;59568;52.128;5.434;2023-01-24T06:13:41;104089.34;;;1.37;91.84
71716;BME280;59568;52.128;5.434;2023-01-24T06:16:17;104088.69;;;1.35;91.83
71716;BME280;59568;52.128;5.434;2023-01-24T06:18:45;104091.41;;;1.33;91.88
71716;BME280;59568;52.128;5.434;2023-01-24T06:21:50;104087.31;;;1.31;91.88
71716;BME280;59568;52.128;5.434;2023-01-24T06:26:46;104091.81;;;1.29;91.89
71716;BME280;59568;52.128;5.434;2023-01-24T06:29:14;104089.41;;;1.27;91.72
71716;BME280;59568;52.128;5.434;2023-01-24T06:37:48;104092.78;;;1.28;91.86
71716;BME280;59568;52.128;5.434;2023-01-24T06:40:18;104099.41;;;1.30;91.90
71716;BME280;59568;52.128;5.434;2023-01-24T06:42:46;104103.75;;;1.30;92.25
71716;BME280;59568;52.128;5.434;2023-01-24T06:45:13;104101.19;;;1.30;92.18
71716;BME280;59568;52.128;5.434;2023-01-24T06:47:40;104101.19;;;1.30;92.12
71716;BME280;59568;52.128;5.434;2023-01-24T06:50:13;104108.22;;;1.28;92.39
71716;BME280;59568;52.128;5.434;2023-01-24T06:52:41;104100.50;;;1.28;92.09
71716;BME280;59568;52.128;5.434;2023-01-24T06:55:08;104102.13;;;1.29;92.14
71716;BME280;59568;52.128;5.434;2023-01-24T06:57:35;104110.69;;;1.29;92.23
71716;BME280;59568;52.128;5.434;2023-01-24T07:00:03;104103.75;;;1.30;92.33
71716;BME280;59568;52.128;5.434;2023-01-24T07:02:31;104110.50;;;1.31;92.58
71716;BME280;59568;52.128;5.434;2023-01-24T07:04:58;104106.31;;;1.30;92.52
71716;BME280;59568;52.128;5.434;2023-01-24T07:07:25;104115.53;;;1.32;92.46
71716;BME280;59568;52.128;5.434;2023-01-24T07:09:52;104107.81;;;1.32;92.72
71716;BME280;59568;52.128;5.434;2023-01-24T07:12:18;104115.53;;;1.32;92.77
71716;BME280;59568;52.128;5.434;2023-01-24T07:14:45;104103.75;;;1.30;92.50
71716;BME280;59568;52.128;5.434;2023-01-24T07:17:13;104114.19;;;1.28;92.55
71716;BME280;59568;52.128;5.434;2023-01-24T07:19:40;104119.47;;;1.27;92.66
71716;BME280;59568;52.128;5.434;2023-01-24T07:22:11;104122.06;;;1.27;92.57
71716;BME280;59568;52.128;5.434;2023-01-24T07:24:39;104126.53;;;1.25;92.63
71716;BME280;59568;52.128;5.434;2023-01-24T07:27:06;104119.78;;;1.24;92.37
71716;BME280;59568;52.128;5.434;2023-01-24T07:29:33;104127.63;;;1.22;92.97
71716;BME280;59568;52.128;5.434;2023-01-24T07:32:00;104127.78;;;1.20;92.71
71716;BME280;59568;52.128;5.434;2023-01-24T07:34:28;104125.50;;;1.17;92.75
71716;BME280;59568;52.128;5.434;2023-01-24T07:36:54;104123.06;;;1.16;92.39
71716;BME280;59568;52.128;5.434;2023-01-24T07:39:21;104139.19;;;1.18;92.36
71716;BME280;59568;52.128;5.434;2023-01-24T07:41:48;104139.47;;;1.15;92.28
71716;BME280;59568;52.128;5.434;2023-01-24T07:44:17;104142.84;;;1.15;92.36
71716;BME280;59568;52.128;5.434;2023-01-24T07:46:44;104146.38;;;1.14;92.20
71716;BME280;59568;52.128;5.434;2023-01-24T07:49:11;104150.72;;;1.14;92.27
71716;BME280;59568;52.128;5.434;2023-01-24T07:51:38;104151.81;;;1.11;92.46
71716;BME280;59568;52.128;5.434;2023-01-24T07:54:06;104148.56;;;1.09;92.33
71716;BME280;59568;52.128;5.434;2023-01-24T07:56:36;104153.72;;;1.09;92.14
71716;BME280;59568;52.128;5.434;2023-01-24T07:59:02;104150.19;;;1.10;92.09
71716;BME280;59568;52.128;5.434;2023-01-24T08:01:29;104156.00;;;1.12;92.34
71716;BME280;59568;52.128;5.434;2023-01-24T08:03:57;104145.03;;;1.10;92.48
71716;BME280;59568;52.128;5.434;2023-01-24T08:06:25;104148.56;;;1.09;92.26
71716;BME280;59568;52.128;5.434;2023-01-24T08:08:52;104148.56;;;1.09;92.35
71716;BME280;59568;52.128;5.434;2023-01-24T08:11:19;104147.59;;;1.10;92.36
71716;BME280;59568;52.128;5.434;2023-01-24T08:13:46;104154.41;;;1.11;92.38
71716;BME280;59568;52.128;5.434;2023-01-24T08:16:13;104153.72;;;1.09;92.45
71716;BME280;59568;52.128;5.434;2023-01-24T08:18:40;104162.94;;;1.12;93.22
71716;BME280;59568;52.128;5.434;2023-01-24T08:21:07;104156.97;;;1.11;92.39
71716;BME280;59568;52.128;5.434;2023-01-24T08:23:34;104157.09;;;1.10;92.56
71716;BME280;59568;52.128;5.434;2023-01-24T08:26:02;104156.28;;;1.09;92.94
71716;BME280;59568;52.128;5.434;2023-01-24T08:28:29;104164.03;;;1.09;92.69
71716;BME280;59568;52.128;5.434;2023-01-24T08:30:57;104159.81;;;1.08;92.60
71716;BME280;59568;52.128;5.434;2023-01-24T08:33:25;104170.78;;;1.10;92.56
71716;BME280;59568;52.128;5.434;2023-01-24T08:35:52;104172.41;;;1.11;92.59
71716;BME280;59568;52.128;5.434;2023-01-24T08:38:19;104165.22;;;1.15;92.53
71716;BME280;59568;52.128;5.434;2023-01-24T08:40:46;104169.56;;;1.14;92.73
71716;BME280;59568;52.128;5.434;2023-01-24T08:43:16;104182.31;;;1.16;92.70
71716;BME280;59568;52.128;5.434;2023-01-24T08:45:44;104191.38;;;1.20;92.50
71716;BME280;59568;52.128;5.434;2023-01-24T08:48:11;104176.03;;;1.18;92.77
71716;BME280;59568;52.128;5.434;2023-01-24T08:50:37;104172.53;;;1.19;92.46
71716;BME280;59568;52.128;5.434;2023-01-24T08:53:04;104187.69;;;1.23;92.49
71716;BME280;59568;52.128;5.434;2023-01-24T08:55:31;104179.16;;;1.22;92.93
71716;BME280;59568;52.128;5.434;2023-01-24T08:58:00;104190.00;;;1.26;92.77
71716;BME280;59568;52.128;5.434;2023-01-24T09:00:29;104190.00;;;1.26;92.58
71716;BME280;59568;52.128;5.434;2023-01-24T09:02:55;104196.78;;;1.27;92.80
71716;BME280;59568;52.128;5.434;2023-01-24T09:05:30;104187.69;;;1.23;92.72
71716;BME280;59568;52.128;5.434;2023-01-24T09:08:01;104193.69;;;1.23;92.60
71716;BME280;59568;52.128;5.434;2023-01-24T09:10:28;104194.34;;;1.25;92.76
71716;BME280;59568;52.128;5.434;2023-01-24T09:12:55;104181.31;;;1.27;92.52
71716;BME280;59568;52.128;5.434;2023-01-24T09:15:22;104191.34;;;1.30;92.93
71716;BME280;59568;52.128;5.434;2023-01-24T09:17:49;104197.84;;;1.34;92.72
71716;BME280;59568;52.128;5.434;2023-01-24T09:20:16;104197.59;;;1.37;92.88
71716;BME280;59568;52.128;5.434;2023-01-24T09:22:43;104202.56;;;1.38;93.00
71716;BME280;59568;52.128;5.434;2023-01-24T09:25:10;104205.97;;;1.39;92.75
71716;BME280;59568;52.128;5.434;2023-01-24T09:27:37;104193.09;;;1.39;92.88
71716;BME280;59568;52.128;5.434;2023-01-24T09:30:04;104198.53;;;1.36;92.87
71716;BME280;59568;52.128;5.434;2023-01-24T09:32:32;104202.44;;;1.40;92.86
71716;BME280;59568;52.128;5.434;2023-01-24T09:34:59;104206.50;;;1.43;92.92
71716;BME280;59568;52.128;5.434;2023-01-24T09:37:26;104205.69;;;1.42;92.79
71716;BME280;59568;52.128;5.434;2023-01-24T09:39:53;104220.22;;;1.43;93.04
71716;BME280;59568;52.128;5.434;2023-01-24T09:42:32;104214.09;;;1.44;92.95
71716;BME280;59568;52.128;5.434;2023-01-24T09:47:47;104210.94;;;1.50;92.84
71716;BME280;59568;52.128;5.434;2023-01-24T09:50:21;104211.75;;;1.51;92.84
71716;BME280;59568;52.128;5.434;2023-01-24T09:52:56;104215.16;;;1.51;92.74
71716;BME280;59568;52.128;5.434;2023-01-24T09:55:28;104215.84;;;1.53;93.31
71716;BME280;59568;52.128;5.434;2023-01-24T10:00:33;104217.75;;;1.51;92.72
71716;BME280;59568;52.128;5.434;2023-01-24T10:03:02;104215.84;;;1.53;92.84
71716;BME280;59568;52.128;5.434;2023-01-24T10:05:38;104219.22;;;1.54;92.62
71716;BME280;59568;52.128;5.434;2023-01-24T10:08:20;104221.94;;;1.52;92.88
71716;BME280;59568;52.128;5.434;2023-01-24T10:13:55;104214.06;;;1.54;92.93
71716;BME280;59568;52.128;5.434;2023-01-24T10:22:48;104204.97;;;1.59;92.95
71716;BME280;59568;52.128;5.434;2023-01-24T10:28:22;104217.03;;;1.59;92.48
71716;BME280;59568;52.128;5.434;2023-01-24T10:31:07;104210.78;;;1.62;92.71
71716;BME280;59568;52.128;5.434;2023-01-24T10:33:41;104220.13;;;1.63;92.08
71716;BME280;59568;52.128;5.434;2023-01-24T10:36:17;104212.81;;;1.58;92.46
71716;BME280;59568;52.128;5.434;2023-01-24T10:38:46;104215.66;;;1.55;92.03
71716;BME280;59568;52.128;5.434;2023-01-24T10:41:22;104211.34;;;1.55;92.31
71716;BME280;59568;52.128;5.434;2023-01-24T10:43:58;104209.56;;;1.56;91.78
71716;BME280;59568;52.128;5.434;2023-01-24T10:49:07;104207.25;;;1.63;91.86
71716;BME280;59568;52.128;5.434;2023-01-24T10:51:38;104198.25;;;1.67;92.12
71716;BME280;59568;52.128;5.434;2023-01-24T10:54:19;104204.38;;;1.66;91.90
71716;BME280;59568;52.128;5.434;2023-01-24T10:56:47;104203.41;;;1.67;92.05
71716;BME280;59568;52.128;5.434;2023-01-24T10:59:15;104197.69;;;1.73;91.79
71716;BME280;59568;52.128;5.434;2023-01-24T11:01:46;104190.94;;;1.72;91.57
71716;BME280;59568;52.128;5.434;2023-01-24T11:04:22;104193.50;;;1.72;91.73
71716;BME280;59568;52.128;5.434;2023-01-24T11:06:50;104191.72;;;1.72;91.51
71716;BME280;59568;52.128;5.434;2023-01-24T11:09:20;104195.66;;;1.76;91.62
71716;BME280;59568;52.128;5.434;2023-01-24T11:11:50;104181.16;;;1.75;91.57
71716;BME280;59568;52.128;5.434;2023-01-24T11:14:26;104188.72;;;1.77;91.09
71716;BME280;59568;52.128;5.434;2023-01-24T11:16:56;104187.63;;;1.79;91.33
71716;BME280;59568;52.128;5.434;2023-01-24T11:19:36;104182.22;;;1.73;90.84
71716;BME280;59568;52.128;5.434;2023-01-24T11:22:22;104176.41;;;1.71;90.72
71716;BME280;59568;52.128;5.434;2023-01-24T11:24:50;104178.03;;;1.72;90.85
71716;BME280;59568;52.128;5.434;2023-01-24T11:27:21;104171.91;;;1.73;90.91
71716;BME280;59568;52.128;5.434;2023-01-24T11:30:24;104170.53;;;1.78;91.04
71716;BME280;59568;52.128;5.434;2023-01-24T11:36:22;104169.72;;;1.78;90.45
71716;BME280;59568;52.128;5.434;2023-01-24T11:38:53;104162.00;;;1.78;90.79
71716;BME280;59568;52.128;5.434;2023-01-24T11:41:32;104162.34;;;1.83;90.81
71716;BME280;59568;52.128;5.434;2023-01-24T12:01:12;104144.59;;;2.08;90.88
71716;BME280;59568;52.128;5.434;2023-01-24T12:04:25;104142.34;;;2.13;91.09
71716;BME280;59568;52.128;5.434;2023-01-24T12:12:37;104123.78;;;2.09;90.39
71716;BME280;59568;52.128;5.434;2023-01-24T12:23:35;104119.13;;;2.13;89.98
71716;BME280;59568;52.128;5.434;2023-01-24T12:26:14;104121.44;;;2.16;89.86
71716;BME280;59568;52.128;5.434;2023-01-24T12:28:55;104119.81;;;2.15;89.93
71716;BME280;59568;52.128;5.434;2023-01-24T12:31:42;104112.91;;;2.15;89.72
71716;BME280;59568;52.128;5.434;2023-01-24T12:42:52;104113.56;;;2.17;89.90
71716;BME280;59568;52.128;5.434;2023-01-24T12:45:33;104112.66;;;2.27;90.25
71716;BME280;59568;52.128;5.434;2023-01-24T12:48:33;104102.78;;;2.22;89.74
71716;BME280;59568;52.128;5.434;2023-01-24T12:51:13;104100.94;;;2.14;89.45
71716;BME280;59568;52.128;5.434;2023-01-24T12:57:17;104090.69;;;2.23;89.68
71716;BME280;59568;52.128;5.434;2023-01-24T12:59:23;104094.13;;;2.31;90.00
71716;BME280;59568;52.128;5.434;2023-01-24T13:08:00;104080.56;;;2.29;89.62
71716;BME280;59568;52.128;5.434;2023-01-24T13:10:54;104074.59;;;2.29;89.59
71716;BME280;59568;52.128;5.434;2023-01-24T13:13:31;104068.94;;;2.25;89.64
71716;BME280;59568;52.128;5.434;2023-01-24T13:25:19;104071.50;;;2.25;89.54
71716;BME280;59568;52.128;5.434;2023-01-24T13:28:19;104073.00;;;2.28;89.26
71716;BME280;59568;52.128;5.434;2023-01-24T13:31:03;104081.03;;;2.25;89.58
71716;BME280;59568;52.128;5.434;2023-01-24T13:33:45;104073.75;;;2.20;89.28
71716;BME280;59568;52.128;5.434;2023-01-24T13:36:20;104072.09;;;2.19;89.08
71716;BME280;59568;52.128;5.434;2023-01-24T13:38:48;104068.56;;;2.20;89.45
71716;BME280;59568;52.128;5.434;2023-01-24T13:41:39;104067.59;;;2.21;89.38
71716;BME280;59568;52.128;5.434;2023-01-24T13:52:00;104069.25;;;2.22;89.08
71716;BME280;59568;52.128;5.434;2023-01-24T13:54:39;104071.16;;;2.20;89.13
71716;BME280;59568;52.128;5.434;2023-01-24T13:59:41;104069.53;;;2.19;89.42
71716;BME280;59568;52.128;5.434;2023-01-24T14:02:30;104067.59;;;2.21;88.95
71716;BME280;59568;52.128;5.434;2023-01-24T14:04:58;104074.19;;;2.15;88.88
71716;BME280;59568;52.128;5.434;2023-01-24T14:07:28;104074.03;;;2.17;89.02
71716;BME280;59568;52.128;5.434;2023-01-24T14:10:03;104068.19;;;2.15;88.94
71716;BME280;59568;52.128;5.434;2023-01-24T14:12:35;104069.19;;;2.14;88.95
71716;BME280;59568;52.128;5.434;2023-01-24T14:15:25;104064.00;;;2.14;89.12
71716;BME280;59568;52.128;5.434;2023-01-24T14:17:53;104068.66;;;2.10;89.08
71716;BME280;59568;52.128;5.434;2023-01-24T14:22:52;104068.44;;;2.04;88.87
71716;BME280;59568;52.128;5.434;2023-01-24T14:27:50;104066.94;;;2.01;88.83
71716;BME280;59568;52.128;5.434;2023-01-24T14:32:57;104058.19;;;1.94;88.64
71716;BME280;59568;52.128;5.434;2023-01-24T14:38:33;104068.13;;;1.89;88.46
71716;BME280;59568;52.128;5.434;2023-01-24T14:40:59;104056.88;;;1.90;88.74
71716;BME280;59568;52.128;5.434;2023-01-24T14:43:36;104061.22;;;1.89;88.27
71716;BME280;59568;52.128;5.434;2023-01-24T14:46:22;104064.59;;;1.90;88.78
71716;BME280;59568;52.128;5.434;2023-01-24T14:48:50;104062.69;;;1.92;88.79
71716;BME280;59568;52.128;5.434;2023-01-24T14:51:22;104064.88;;;1.87;88.57
71716;BME280;59568;52.128;5.434;2023-01-24T14:53:51;104060.56;;;1.87;88.79
71716;BME280;59568;52.128;5.434;2023-01-24T14:56:19;104067.06;;;1.91;88.98
71716;BME280;59568;52.128;5.434;2023-01-24T14:58:46;104069.78;;;1.90;89.16
71716;BME280;59568;52.128;5.434;2023-01-24T15:01:25;104075.19;;;1.87;89.06
71716;BME280;59568;52.128;5.434;2023-01-24T15:03:53;104078.75;;;1.86;88.80
71716;BME280;59568;52.128;5.434;2023-01-24T15:06:25;104075.66;;;1.82;89.02
71716;BME280;59568;52.128;5.434;2023-01-24T15:08:56;104074.69;;;1.83;89.20
71716;BME280;59568;52.128;5.434;2023-01-24T15:11:35;104068.59;;;1.84;89.00
71716;BME280;59568;52.128;5.434;2023-01-24T15:14:06;104072.50;;;1.88;89.01
71716;BME280;59568;52.128;5.434;2023-01-24T15:16:37;104068.44;;;1.86;89.22
71716;BME280;59568;52.128;5.434;2023-01-24T15:19:19;104070.03;;;1.87;89.42